RORVIK / RYUM current weather conditions

sailwx.info

Wind from 090 at 8 knots

Air temperature 7.0° C
Visibility: greater than 5.4 NM
Dewpoint 1.0° C
Present weather: Showers in the vicinity.

Last reported at 2015-Apr-26 17:20 UTC.
Time now 2015-Apr-26 19:28 UTC

Location: N 64°50' E 011°09'.
View on Google Maps.

See reports from other nearby stations

  
Tides and Currents Weather Stations Pressure Air Temp Water Temp Dewpoint Dewpoint Depression Visibility Wind Speed Wind Dir Waves Ship Positions
date/time (UTC)wind fromknots sea level pressurealtimeterstation pressurevisibilityair tempwater tempwave heightnotes
2015-Apr-26 18:20 110 3 5.4 5.0 Showers in the vicinity.
2015-Apr-26 17:50 080 6 5.4 6.0 Showers in the vicinity.
2015-Apr-26 17:20 090 8 5.4 7.0 Showers in the vicinity.
2015-Apr-26 16:50 150 3 5.4 8.0 Showers in the vicinity.
2015-Apr-26 16:20 150 3 5.4 8.0 Showers in the vicinity.
2015-Apr-26 15:50 110 6 5.4 8.0 Showers in the vicinity.
2015-Apr-26 15:20 120 7 5.4 9.0 Showers in the vicinity.
2015-Apr-26 14:50 110 7 5.4 9.0
2015-Apr-26 14:20 110 8 5.4 9.0
2015-Apr-26 13:50 120 6 5.4 8.0
2015-Apr-26 13:20 180 6 5.4 9.0
2015-Apr-26 12:50 180 6 5.4 9.0
2015-Apr-26 12:20 190 6 5.4 8.0
2015-Apr-25 08:50 090 11 5.4 3.0 Light rain drizzle.
2015-Apr-25 08:20 080 9 5.4 3.0 Showers in the vicinity.
2015-Apr-25 07:50 110 13 5.4 3.0 Light rain showers.
2015-Apr-25 07:20 090 10 5.4 4.0 Showers in the vicinity.
2015-Apr-25 06:50 090 9 4.0
2015-Apr-25 06:20 090 9 4.0
2015-Apr-25 05:50 080 8 3.0
2015-Apr-25 05:20 080 7 2.0
2015-Apr-25 04:50 070 5 2.0
2015-Apr-24 20:20 340 5 5.4 2.0 Light rain showers.
2015-Apr-24 19:50 360 4 5.4 2.0 Light rain showers.
2015-Apr-24 19:20 310 2 5.4 3.0 Light drizzle.